Time;durP1;ratioP1;P1;durP2;ratioP2;P2;SDS_P1;SDS_P2;PMS_P1;PMS_P2;Temp;Humidity;BMP_temperature;BMP_pressure;BME280_temperature;BME280_humidity;BME280_pressure;Samples;Min_cycle;Max_cycle;Signal;HPM_P1;HPM_P2
2024/03/28 00:00:22;;;;;;;1.70;1.60;;;10.30;99.00;;;;;;2096128;28;20433;-66
2024/03/28 00:01:22;;;;;;;1.95;1.77;;;10.30;98.90;;;;;;2095274;28;20045;-66
2024/03/28 00:02:23;;;;;;;3.75;1.75;;;10.30;98.90;;;;;;2094272;28;20052;-66
2024/03/28 00:03:24;;;;;;;2.53;2.10;;;10.30;98.90;;;;;;2095147;28;20077;-66
2024/03/28 00:04:25;;;;;;;4.07;2.08;;;10.30;98.90;;;;;;2094904;28;20558;-67
2024/03/28 00:05:25;;;;;;;2.05;1.50;;;10.30;98.80;;;;;;2086369;28;20037;-66
2024/03/28 00:06:26;;;;;;;1.95;1.80;;;10.30;98.90;;;;;;2085410;28;20035;-66
2024/03/28 00:07:26;;;;;;;2.05;1.90;;;10.30;98.90;;;;;;2094960;28;20029;-67
2024/03/28 00:08:28;;;;;;;1.73;1.63;;;10.30;98.80;;;;;;2095250;28;20040;-68
2024/03/28 00:09:31;;;;;;;2.00;1.80;;;10.30;98.80;;;;;;2094767;28;20489;-66
2024/03/28 00:10:31;;;;;;;2.15;1.95;;;10.30;98.80;;;;;;2095741;28;20037;-67
2024/03/28 00:11:32;;;;;;;2.85;2.22;;;10.30;98.80;;;;;;2095514;28;20029;-66
2024/03/28 00:12:32;;;;;;;2.70;1.70;;;10.30;98.70;;;;;;2094224;28;20037;-66
2024/03/28 00:13:33;;;;;;;2.58;2.20;;;10.30;98.70;;;;;;2096816;28;20132;-67
2024/03/28 00:14:34;;;;;;;2.00;1.88;;;10.30;98.80;;;;;;2094541;28;20354;-67
2024/03/28 00:15:34;;;;;;;2.42;1.98;;;10.30;98.80;;;;;;2094191;28;20016;-67
2024/03/28 00:16:35;;;;;;;2.20;2.00;;;10.30;98.90;;;;;;2096030;28;20479;-66
2024/03/28 00:17:35;;;;;;;3.38;2.13;;;10.30;98.90;;;;;;2095045;28;20028;-66
2024/03/28 00:18:36;;;;;;;2.00;1.90;;;10.30;99.00;;;;;;2093142;28;20107;-68
2024/03/28 00:19:36;;;;;;;3.22;1.80;;;10.30;99.00;;;;;;2095706;28;20029;-66
2024/03/28 00:20:37;;;;;;;2.03;1.85;;;10.20;99.00;;;;;;2094230;28;20420;-66
2024/03/28 00:21:38;;;;;;;1.85;1.73;;;10.30;99.00;;;;;;2094551;28;20496;-66
2024/03/28 00:22:38;;;;;;;2.42;2.00;;;10.30;99.10;;;;;;2094763;28;20381;-67
2024/03/28 00:23:39;;;;;;;2.92;2.08;;;10.30;99.00;;;;;;2095168;28;20021;-66
2024/03/28 00:24:42;;;;;;;3.70;2.10;;;10.30;99.00;;;;;;2095473;28;20079;-66
2024/03/28 00:25:54;;;;;;;2.08;1.92;;;10.30;99.00;;;;;;2094919;28;20078;-66
2024/03/28 00:26:54;;;;;;;1.77;1.67;;;10.30;99.00;;;;;;2093500;28;20225;-67
2024/03/28 00:27:55;;;;;;;2.53;2.00;;;10.30;99.00;;;;;;2095208;28;20033;-66
2024/03/28 00:28:55;;;;;;;2.85;2.00;;;10.30;99.10;;;;;;2093954;28;20544;-67
2024/03/28 00:29:56;;;;;;;2.58;2.08;;;10.30;99.10;;;;;;2095705;28;20094;-67
2024/03/28 00:30:57;;;;;;;2.05;1.85;;;10.30;99.00;;;;;;2094338;28;20111;-67
2024/03/28 00:31:57;;;;;;;2.10;1.90;;;10.30;99.00;;;;;;2095572;28;20588;-68
2024/03/28 00:32:58;;;;;;;2.33;2.13;;;10.30;99.00;;;;;;2095755;28;20033;-67
2024/03/28 00:33:58;;;;;;;3.20;1.92;;;10.20;98.90;;;;;;2093667;28;20504;-67
2024/03/28 00:34:59;;;;;;;2.42;2.10;;;10.20;98.90;;;;;;2095422;28;20033;-66
2024/03/28 00:35:59;;;;;;;2.05;1.85;;;10.20;99.00;;;;;;2094418;28;20372;-67
2024/03/28 00:37:00;;;;;;;3.08;1.60;;;10.20;99.00;;;;;;2094895;28;20116;-66
2024/03/28 00:38:00;;;;;;;2.33;2.08;;;10.20;99.10;;;;;;2095986;28;20036;-67
2024/03/28 00:39:02;;;;;;;2.13;1.98;;;10.20;99.10;;;;;;2095073;28;20067;-67
2024/03/28 00:40:03;;;;;;;2.28;2.05;;;10.20;99.00;;;;;;2094200;28;20021;-66
2024/03/28 00:41:04;;;;;;;6.10;2.28;;;10.20;99.00;;;;;;2096059;28;20077;-65
2024/03/28 00:42:04;;;;;;;2.25;2.13;;;10.20;99.10;;;;;;2094610;28;20029;-66
2024/03/28 00:43:05;;;;;;;3.03;2.22;;;10.20;99.00;;;;;;2093388;28;20027;-67
2024/03/28 00:44:08;;;;;;;2.55;2.30;;;10.20;99.00;;;;;;2096305;28;20423;-68
2024/03/28 00:45:09;;;;;;;3.85;2.83;;;10.20;99.00;;;;;;2093647;28;20035;-67
2024/03/28 00:46:10;;;;;;;2.85;2.55;;;10.20;99.00;;;;;;2094412;28;20037;-67
2024/03/28 00:47:11;;;;;;;3.22;2.45;;;10.10;99.30;;;;;;2092367;28;20408;-65
2024/03/28 00:48:12;;;;;;;4.93;2.60;;;10.20;99.10;;;;;;2093197;28;20025;-66
2024/03/28 00:49:13;;;;;;;2.05;1.95;;;10.10;99.10;;;;;;2094124;28;20054;-66
2024/03/28 00:50:14;;;;;;;2.85;2.25;;;10.10;99.10;;;;;;2093449;28;20056;-66
2024/03/28 00:51:16;;;;;;;2.60;2.40;;;10.10;99.20;;;;;;2093082;28;20496;-67
2024/03/28 00:52:16;;;;;;;3.17;2.53;;;10.10;99.20;;;;;;2094251;28;20105;-66
2024/03/28 00:53:17;;;;;;;3.38;2.20;;;10.10;99.30;;;;;;2094282;28;20154;-67
2024/03/28 00:54:17;;;;;;;3.22;2.25;;;10.10;99.30;;;;;;2094445;28;20029;-66
2024/03/28 00:55:18;;;;;;;2.38;1.95;;;10.10;99.30;;;;;;2085644;28;20087;-66
2024/03/28 00:56:18;;;;;;;2.72;2.20;;;10.10;99.30;;;;;;2085414;28;20028;-66
2024/03/28 00:57:19;;;;;;;3.10;2.08;;;10.10;99.30;;;;;;2094991;28;20082;-66
2024/03/28 00:58:20;;;;;;;2.90;2.30;;;10.10;99.30;;;;;;2093696;28;20081;-66
2024/03/28 00:59:20;;;;;;;2.80;2.25;;;10.10;99.30;;;;;;2094812;28;20040;-66
2024/03/28 01:00:21;;;;;;;2.67;2.47;;;10.10;99.30;;;;;;2095103;28;20020;-66
2024/03/28 01:01:23;;;;;;;2.88;2.63;;;10.10;99.30;;;;;;2093576;28;20029;-66
2024/03/28 01:02:23;;;;;;;2.55;2.30;;;10.10;99.30;;;;;;2093860;28;20009;-67
2024/03/28 01:03:24;;;;;;;3.55;2.67;;;10.10;99.40;;;;;;2095211;28;20032;-66
2024/03/28 01:04:24;;;;;;;3.38;2.13;;;10.10;99.40;;;;;;2093329;28;20056;-66
2024/03/28 01:05:25;;;;;;;3.47;2.40;;;10.10;99.30;;;;;;2093669;28;20496;-66
2024/03/28 01:06:26;;;;;;;3.58;2.50;;;10.10;99.30;;;;;;2094052;28;20078;-66
2024/03/28 01:07:26;;;;;;;2.92;2.35;;;10.10;99.40;;;;;;2092660;28;20122;-66
2024/03/28 01:08:27;;;;;;;3.95;2.00;;;10.10;99.40;;;;;;2094396;28;20028;-66
2024/03/28 01:09:27;;;;;;;2.40;2.20;;;10.10;99.40;;;;;;2092322;28;20032;-67
2024/03/28 01:10:28;;;;;;;3.25;2.95;;;10.10;99.30;;;;;;2093815;28;20028;-68
2024/03/28 01:11:28;;;;;;;2.88;2.30;;;10.10;99.30;;;;;;2092878;28;20452;-67
2024/03/28 01:12:29;;;;;;;2.58;2.38;;;10.10;99.70;;;;;;2093051;28;20024;-66
2024/03/28 01:13:30;;;;;;;3.10;2.30;;;10.10;99.40;;;;;;2095132;28;20091;-66
2024/03/28 01:14:31;;;;;;;2.45;2.25;;;10.10;99.50;;;;;;2085289;28;20025;-66
2024/03/28 01:15:34;;;;;;;2.50;2.30;;;10.10;99.50;;;;;;2084476;28;20446;-65
2024/03/28 01:16:35;;;;;;;2.88;2.60;;;10.10;99.50;;;;;;2093721;28;20111;-67
2024/03/28 01:17:35;;;;;;;4.03;2.47;;;10.10;99.50;;;;;;2092930;28;20016;-66
2024/03/28 01:18:36;;;;;;;2.47;2.20;;;10.10;99.50;;;;;;2093665;28;20396;-66
2024/03/28 01:19:37;;;;;;;2.90;2.65;;;10.10;99.40;;;;;;2092428;28;20078;-66
2024/03/28 01:20:37;;;;;;;2.60;2.35;;;10.10;99.50;;;;;;2088977;28;20029;-66
2024/03/28 01:21:38;;;;;;;2.60;2.33;;;10.10;99.40;;;;;;2087218;28;20027;-66
2024/03/28 01:22:39;;;;;;;2.90;2.28;;;10.00;99.40;;;;;;2085197;28;20029;-65
2024/03/28 01:23:39;;;;;;;2.40;2.20;;;10.00;99.40;;;;;;2084616;28;20100;-67
2024/03/28 01:24:40;;;;;;;2.65;2.38;;;10.00;99.40;;;;;;2087110;28;20033;-66
2024/03/28 01:25:40;;;;;;;3.88;2.78;;;10.00;99.40;;;;;;2075493;28;20025;-67
2024/03/28 01:26:41;;;;;;;3.08;2.33;;;10.00;99.40;;;;;;2076705;28;20037;-67
2024/03/28 01:27:41;;;;;;;3.53;2.80;;;10.00;99.40;;;;;;2083981;28;20025;-66
2024/03/28 01:28:44;;;;;;;3.10;2.65;;;10.00;99.40;;;;;;2085374;28;20034;-67
2024/03/28 01:29:44;;;;;;;2.63;2.42;;;10.00;99.40;;;;;;2086156;28;20040;-66
2024/03/28 01:30:45;;;;;;;2.45;2.25;;;10.00;99.50;;;;;;2084192;28;20109;-66
2024/03/28 01:31:45;;;;;;;2.55;2.35;;;10.00;99.50;;;;;;2083862;28;20025;-65
2024/03/28 01:32:46;;;;;;;2.85;2.65;;;10.00;99.50;;;;;;2087249;28;20021;-66
2024/03/28 01:33:46;;;;;;;4.07;2.83;;;9.90;99.30;;;;;;2085587;28;20040;-66
2024/03/28 01:34:47;;;;;;;3.72;2.70;;;10.00;99.30;;;;;;2085738;28;20507;-67
2024/03/28 01:35:47;;;;;;;2.40;2.20;;;10.00;99.30;;;;;;2084087;28;20031;-67
2024/03/28 01:36:48;;;;;;;2.35;2.15;;;9.90;99.30;;;;;;2088337;28;20034;-67
2024/03/28 01:37:48;;;;;;;3.33;2.55;;;9.90;99.30;;;;;;2087071;28;20029;-66
2024/03/28 01:38:49;;;;;;;3.08;2.78;;;9.90;99.30;;;;;;2077987;28;20032;-67
2024/03/28 01:39:49;;;;;;;2.58;2.38;;;9.90;99.40;;;;;;2078905;28;20459;-67
2024/03/28 01:40:50;;;;;;;2.80;2.53;;;9.90;99.40;;;;;;2085849;28;20024;-66
2024/03/28 01:41:52;;;;;;;2.53;2.20;;;9.90;99.40;;;;;;2081616;28;20032;-66
2024/03/28 01:43:03;;;;;;;2.65;2.45;;;10.00;99.30;;;;;;2083132;28;20059;-65
2024/03/28 01:44:03;;;;;;;2.45;2.25;;;9.90;99.20;;;;;;2073718;28;20037;-67
2024/03/28 01:45:05;;;;;;;2.88;2.45;;;9.90;99.20;;;;;;2075908;28;20257;-68
2024/03/28 01:46:07;;;;;;;2.20;2.10;;;9.90;99.20;;;;;;2082527;28;20021;-68
2024/03/28 01:47:07;;;;;;;2.80;2.30;;;9.90;99.20;;;;;;2081911;28;20032;-66
2024/03/28 01:48:08;;;;;;;2.85;2.20;;;9.90;99.20;;;;;;2083785;28;20032;-66
2024/03/28 01:49:09;;;;;;;2.70;2.50;;;9.90;99.20;;;;;;2086193;28;20036;-66
2024/03/28 01:50:11;;;;;;;2.88;2.58;;;9.90;99.20;;;;;;2084873;28;20024;-67
2024/03/28 01:51:11;;;;;;;3.58;2.38;;;9.90;99.20;;;;;;2085671;28;20017;-66
2024/03/28 01:52:12;;;;;;;2.25;2.15;;;9.90;99.20;;;;;;2085016;28;20025;-66
2024/03/28 01:53:14;;;;;;;2.25;2.15;;;9.90;99.20;;;;;;2084601;28;20029;-65
2024/03/28 01:54:15;;;;;;;3.67;2.65;;;9.90;99.20;;;;;;2088406;28;20034;-66
2024/03/28 01:55:16;;;;;;;2.53;2.33;;;9.90;99.10;;;;;;2086030;28;20024;-66
2024/03/28 01:56:18;;;;;;;2.60;2.40;;;9.90;99.10;;;;;;2086919;28;20025;-66
2024/03/28 01:57:19;;;;;;;3.25;2.28;;;9.90;99.20;;;;;;2084011;28;20514;-66
2024/03/28 01:58:20;;;;;;;3.40;2.30;;;9.90;99.20;;;;;;2085147;28;20083;-66
2024/03/28 01:59:21;;;;;;;2.55;2.35;;;9.90;99.20;;;;;;2086402;28;20102;-66
2024/03/28 02:00:23;;;;;;;3.40;2.30;;;9.90;99.20;;;;;;2084741;28;20029;-67
2024/03/28 02:01:23;;;;;;;5.65;2.90;;;9.90;99.20;;;;;;2084045;28;20382;-66
2024/03/28 02:02:25;;;;;;;2.45;2.20;;;9.80;99.20;;;;;;2084997;28;20025;-66
2024/03/28 02:03:25;;;;;;;3.40;2.45;;;9.80;99.20;;;;;;2085708;28;20032;-66
2024/03/28 02:04:26;;;;;;;2.60;2.40;;;9.80;99.20;;;;;;2084159;28;20025;-66
2024/03/28 02:05:27;;;;;;;2.95;2.55;;;9.80;99.20;;;;;;2087235;28;20494;-66
2024/03/28 02:06:29;;;;;;;3.15;2.50;;;9.80;99.20;;;;;;2079286;28;20026;-67
2024/03/28 02:07:29;;;;;;;3.40;2.28;;;9.80;99.20;;;;;;2084501;28;20032;-66
2024/03/28 02:08:30;;;;;;;3.05;2.17;;;9.70;99.20;;;;;;2086003;28;20495;-65
2024/03/28 02:09:31;;;;;;;2.67;2.30;;;9.80;99.30;;;;;;2085886;28;20075;-66
2024/03/28 02:10:34;;;;;;;3.10;2.80;;;9.80;99.30;;;;;;2083301;28;20025;-66
2024/03/28 02:11:34;;;;;;;2.72;2.40;;;9.80;99.30;;;;;;2086399;28;20110;-66
2024/03/28 02:12:35;;;;;;;2.35;2.15;;;9.80;99.40;;;;;;2075670;28;20079;-67
2024/03/28 02:13:36;;;;;;;3.40;2.75;;;9.80;99.30;;;;;;2077441;28;20100;-66
2024/03/28 02:14:37;;;;;;;2.90;2.17;;;9.80;99.30;;;;;;2086955;28;20028;-67
2024/03/28 02:15:38;;;;;;;2.58;2.00;;;9.80;99.30;;;;;;2085578;28;20029;-65
2024/03/28 02:16:38;;;;;;;2.55;2.25;;;9.80;99.30;;;;;;2078186;28;20112;-67
2024/03/28 02:17:49;;;;;;;3.05;2.35;;;9.80;99.30;;;;;;2085435;28;20017;-67
2024/03/28 02:18:55;;;;;;;2.38;2.17;;;9.70;99.30;;;;;;2085161;28;20238;-66
2024/03/28 02:19:56;;;;;;;3.67;2.40;;;9.70;99.40;;;;;;2088635;28;20053;-67
2024/03/28 02:20:57;;;;;;;2.92;2.70;;;9.70;99.40;;;;;;2093439;28;20098;-66
2024/03/28 02:21:59;;;;;;;3.38;2.40;;;9.70;99.40;;;;;;2093664;28;20049;-67
2024/03/28 02:23:00;;;;;;;3.65;2.47;;;9.70;99.40;;;;;;2093282;28;20520;-66
2024/03/28 02:24:00;;;;;;;2.60;2.35;;;9.70;99.40;;;;;;2095190;28;20376;-66
2024/03/28 02:25:01;;;;;;;2.60;2.38;;;9.70;99.40;;;;;;2092836;28;20141;-66
2024/03/28 02:26:03;;;;;;;3.83;2.13;;;9.70;99.40;;;;;;2093217;28;20032;-66
2024/03/28 02:27:04;;;;;;;3.42;2.45;;;9.70;99.40;;;;;;2092976;28;20021;-66
2024/03/28 02:28:05;;;;;;;2.65;2.45;;;9.70;99.40;;;;;;2095008;28;20020;-66
2024/03/28 02:29:05;;;;;;;2.67;2.20;;;9.70;99.30;;;;;;2093590;28;20070;-66
2024/03/28 02:30:07;;;;;;;4.03;2.60;;;9.70;99.30;;;;;;2092143;28;20025;-66
2024/03/28 02:31:08;;;;;;;2.40;1.92;;;9.70;99.30;;;;;;2092542;28;20028;-66
2024/03/28 02:32:09;;;;;;;2.33;2.22;;;9.70;99.60;;;;;;2091748;28;20489;-66
2024/03/28 02:33:09;;;;;;;3.78;2.13;;;9.70;99.20;;;;;;2093452;28;20168;-67
2024/03/28 02:34:10;;;;;;;2.58;2.38;;;9.70;99.20;;;;;;2092148;28;20032;-66
2024/03/28 02:35:10;;;;;;;2.30;2.17;;;9.70;99.30;;;;;;2094194;28;20029;-66
2024/03/28 02:36:11;;;;;;;2.63;2.40;;;9.70;99.20;;;;;;2095063;28;20413;-65
2024/03/28 02:37:12;;;;;;;2.60;2.40;;;9.70;99.10;;;;;;2093447;28;20020;-67
2024/03/28 02:38:12;;;;;;;2.97;2.35;;;9.70;99.20;;;;;;2094093;28;20033;-66
2024/03/28 02:39:13;;;;;;;3.30;2.60;;;9.70;99.20;;;;;;2093197;28;20043;-66
2024/03/28 02:40:14;;;;;;;5.13;2.35;;;9.70;99.20;;;;;;2094075;28;20116;-67
2024/03/28 02:41:19;;;;;;;2.72;2.20;;;9.70;99.20;;;;;;2092488;28;20030;-66
2024/03/28 02:42:19;;;;;;;3.05;2.45;;;9.70;99.20;;;;;;2095094;28;20104;-67
2024/03/28 02:43:20;;;;;;;2.28;2.03;;;9.70;99.20;;;;;;2091970;28;20154;-66
2024/03/28 02:44:21;;;;;;;2.17;2.08;;;9.70;99.20;;;;;;2094406;28;20032;-66
2024/03/28 02:45:21;;;;;;;3.95;2.58;;;9.70;99.20;;;;;;2094300;28;20435;-65
2024/03/28 02:46:22;;;;;;;4.43;2.10;;;9.70;99.20;;;;;;2092106;28;20151;-65
2024/03/28 02:47:22;;;;;;;2.25;2.05;;;9.70;99.20;;;;;;2093739;28;20086;-65
2024/03/28 02:48:23;;;;;;;2.72;2.53;;;9.70;99.20;;;;;;2094836;28;20028;-65
2024/03/28 02:49:23;;;;;;;3.42;2.20;;;9.70;99.20;;;;;;2094243;28;20032;-66
2024/03/28 02:50:24;;;;;;;2.17;2.03;;;9.70;99.20;;;;;;2095814;28;20038;-66
2024/03/28 02:51:24;;;;;;;6.18;2.13;;;9.70;99.20;;;;;;2093903;28;20406;-66
2024/03/28 02:52:25;;;;;;;2.58;2.35;;;9.70;99.20;;;;;;2096816;28;20029;-66
2024/03/28 02:53:26;;;;;;;3.00;2.70;;;9.70;99.20;;;;;;2097184;28;20062;-65
2024/03/28 02:54:26;;;;;;;2.33;2.13;;;9.70;99.10;;;;;;2093867;28;20037;-65
2024/03/28 02:55:27;;;;;;;2.97;2.13;;;9.70;99.00;;;;;;2095397;28;20021;-67
2024/03/28 02:56:27;;;;;;;3.55;2.30;;;9.70;99.10;;;;;;2095700;28;20055;-67
2024/03/28 02:57:28;;;;;;;2.40;2.20;;;9.60;99.10;;;;;;2093985;28;20439;-68
2024/03/28 02:58:28;;;;;;;3.05;2.20;;;9.70;99.10;;;;;;2096205;28;20059;-66
2024/03/28 02:59:30;;;;;;;2.40;2.10;;;9.70;99.20;;;;;;2095605;28;20033;-66
2024/03/28 03:00:31;;;;;;;2.40;2.20;;;9.60;99.10;;;;;;2094167;28;20033;-66
2024/03/28 03:01:33;;;;;;;3.50;2.05;;;9.60;99.10;;;;;;2095816;28;20020;-65
2024/03/28 03:02:34;;;;;;;2.55;2.35;;;9.60;99.10;;;;;;2093061;28;20415;-65
2024/03/28 03:03:34;;;;;;;3.33;2.38;;;9.60;99.10;;;;;;2096137;28;20029;-65
2024/03/28 03:04:35;;;;;;;2.45;2.25;;;9.60;99.10;;;;;;2093633;28;20346;-66
2024/03/28 03:05:35;;;;;;;2.92;2.20;;;9.60;99.10;;;;;;2094997;28;20104;-65
2024/03/28 03:06:36;;;;;;;2.33;2.13;;;9.60;99.10;;;;;;2095415;28;20544;-65
2024/03/28 03:07:36;;;;;;;3.05;2.10;;;9.60;99.10;;;;;;2094947;28;20114;-66
2024/03/28 03:08:37;;;;;;;3.35;2.25;;;9.60;99.10;;;;;;2095821;28;20032;-66
2024/03/28 03:09:37;;;;;;;2.40;2.30;;;9.60;99.10;;;;;;2094730;28;20032;-65
2024/03/28 03:10:38;;;;;;;2.20;2.00;;;9.60;99.20;;;;;;2094970;28;20033;-65
2024/03/28 03:11:39;;;;;;;3.65;2.60;;;9.60;99.10;;;;;;2093670;28;20119;-66
2024/03/28 03:12:39;;;;;;;2.63;2.33;;;9.60;99.10;;;;;;2095157;28;20040;-67
2024/03/28 03:13:40;;;;;;;2.63;2.15;;;9.60;99.20;;;;;;2093568;28;20036;-66
2024/03/28 03:14:40;;;;;;;2.50;2.30;;;9.60;99.20;;;;;;2094845;28;20040;-65
2024/03/28 03:15:41;;;;;;;2.10;2.00;;;9.60;99.20;;;;;;2094165;28;20367;-65
2024/03/28 03:16:41;;;;;;;2.30;2.10;;;9.60;99.20;;;;;;2088241;28;20036;-65
2024/03/28 03:17:42;;;;;;;3.10;2.38;;;9.60;99.30;;;;;;2087884;28;20029;-65
2024/03/28 03:18:42;;;;;;;2.65;2.10;;;9.50;99.20;;;;;;2095020;28;20104;-65
2024/03/28 03:19:43;;;;;;;2.92;2.35;;;9.60;99.30;;;;;;2093638;28;20104;-66
2024/03/28 03:20:49;;;;;;;4.70;2.20;;;9.60;99.30;;;;;;2095757;28;20044;-65
2024/03/28 03:21:52;;;;;;;2.50;2.30;;;9.60;99.30;;;;;;2094115;28;20021;-65
2024/03/28 03:23:03;;;;;;;2.38;2.10;;;9.50;99.30;;;;;;2095277;28;20024;-65
2024/03/28 03:24:04;;;;;;;2.40;2.20;;;9.60;99.30;;;;;;2095546;28;20012;-66
2024/03/28 03:25:11;;;;;;;2.33;2.13;;;9.60;99.30;;;;;;2095424;28;20377;-66
2024/03/28 03:26:24;;;;;;;2.45;2.25;;;9.60;99.30;;;;;;2092793;28;20029;-67
2024/03/28 03:27:32;;;;;;;2.75;2.30;;;9.60;99.30;;;;;;2093274;28;20025;-66
2024/03/28 03:35:10;;;;;;;2.58;2.38;;;9.50;99.40;;;;;;2093979;28;20025;-65
2024/03/28 03:36:10;;;;;;;2.67;2.10;;;9.40;99.40;;;;;;2095057;28;20104;-66
2024/03/28 03:37:19;;;;;;;2.55;2.28;;;9.40;99.50;;;;;;2093787;28;20024;-65
2024/03/28 03:38:20;;;;;;;2.65;1.92;;;9.50;99.60;;;;;;2094692;28;20033;-66
2024/03/28 03:39:21;;;;;;;2.63;2.42;;;9.40;99.50;;;;;;2094920;28;20021;-65
2024/03/28 03:40:21;;;;;;;2.60;2.40;;;9.40;99.50;;;;;;2093588;28;20017;-66
2024/03/28 03:41:22;;;;;;;2.60;2.40;;;9.40;99.50;;;;;;2095262;28;20104;-66
2024/03/28 03:42:23;;;;;;;2.40;2.20;;;9.40;99.50;;;;;;2093982;28;20059;-66
2024/03/28 03:43:23;;;;;;;3.90;2.65;;;9.40;99.50;;;;;;2094776;28;20020;-66
2024/03/28 03:44:24;;;;;;;3.13;2.70;;;9.40;99.50;;;;;;2094636;28;20470;-66
2024/03/28 03:45:24;;;;;;;2.97;2.58;;;9.40;99.50;;;;;;2094577;28;20457;-68
2024/03/28 03:46:25;;;;;;;2.58;2.38;;;9.40;99.50;;;;;;2095639;28;20025;-65
2024/03/28 03:47:25;;;;;;;2.78;2.55;;;9.40;99.50;;;;;;2095365;28;20039;-66
2024/03/28 03:48:26;;;;;;;2.95;2.38;;;9.40;99.60;;;;;;2092517;28;20432;-66
2024/03/28 03:49:27;;;;;;;4.50;2.40;;;9.40;99.60;;;;;;2094022;28;20477;-65
2024/03/28 03:50:27;;;;;;;2.88;2.30;;;9.40;99.60;;;;;;2095074;28;20033;-67
2024/03/28 03:51:28;;;;;;;2.63;2.30;;;9.40;99.50;;;;;;2094949;28;20036;-67
2024/03/28 03:52:28;;;;;;;2.63;2.40;;;9.40;99.60;;;;;;2095177;28;20111;-65
2024/03/28 03:53:29;;;;;;;3.33;2.85;;;9.40;99.60;;;;;;2093691;28;20025;-66
2024/03/28 03:54:29;;;;;;;3.35;2.75;;;9.40;99.70;;;;;;2092777;28;20036;-65
2024/03/28 03:55:30;;;;;;;3.05;2.78;;;9.40;99.70;;;;;;2094886;28;20033;-65
2024/03/28 03:56:30;;;;;;;2.78;2.58;;;9.40;99.70;;;;;;2093669;28;20396;-65
2024/03/28 03:57:31;;;;;;;3.92;2.67;;;9.40;99.60;;;;;;2093450;28;20029;-67
2024/03/28 03:58:31;;;;;;;5.25;3.80;;;9.40;99.60;;;;;;2093792;28;20027;-65
2024/03/28 03:59:33;;;;;;;5.32;3.00;;;9.30;99.60;;;;;;2094806;28;20021;-65
2024/03/28 04:00:33;;;;;;;4.30;2.65;;;9.40;99.70;;;;;;2094327;28;20074;-65
2024/03/28 04:01:34;;;;;;;3.17;2.88;;;9.30;99.60;;;;;;2094068;28;20029;-65
2024/03/28 04:02:35;;;;;;;3.20;2.95;;;9.30;99.60;;;;;;2094377;28;20029;-66
2024/03/28 04:03:35;;;;;;;3.67;3.22;;;9.40;99.70;;;;;;2093589;28;20025;-66
2024/03/28 04:04:36;;;;;;;3.45;2.80;;;9.40;99.70;;;;;;2094842;28;20120;-66
2024/03/28 04:05:36;;;;;;;3.22;2.92;;;9.30;99.70;;;;;;2094183;28;20024;-65
2024/03/28 04:06:37;;;;;;;3.50;2.50;;;9.30;99.60;;;;;;2094843;28;20021;-66
2024/03/28 04:07:37;;;;;;;3.38;2.75;;;9.30;99.70;;;;;;2093861;28;20036;-66
2024/03/28 04:08:38;;;;;;;3.70;3.17;;;9.30;99.70;;;;;;2094848;28;20492;-65
2024/03/28 04:09:38;;;;;;;2.85;2.55;;;9.30;99.70;;;;;;2094228;28;20040;-66
2024/03/28 04:10:39;;;;;;;2.95;2.75;;;9.30;99.70;;;;;;2093175;28;20039;-66
2024/03/28 04:11:39;;;;;;;3.20;2.90;;;9.30;99.60;;;;;;2094854;28;20029;-66
2024/03/28 04:12:40;;;;;;;4.32;3.50;;;9.30;99.60;;;;;;2093868;28;20032;-65
2024/03/28 04:13:40;;;;;;;3.50;3.20;;;9.30;99.60;;;;;;2094199;28;20112;-65
2024/03/28 04:14:41;;;;;;;3.47;3.17;;;9.30;99.60;;;;;;2093771;28;20025;-65
2024/03/28 04:15:42;;;;;;;3.35;2.75;;;9.30;99.60;;;;;;2092339;28;20013;-65
2024/03/28 04:16:43;;;;;;;3.95;3.13;;;9.30;99.60;;;;;;2094700;28;20020;-66
2024/03/28 04:17:43;;;;;;;3.50;3.00;;;9.30;99.60;;;;;;2093779;28;20073;-65
2024/03/28 04:18:44;;;;;;;2.80;2.60;;;9.30;99.60;;;;;;2094793;28;20016;-65
2024/03/28 04:19:44;;;;;;;3.65;3.10;;;9.30;99.60;;;;;;2096495;28;20451;-68
2024/03/28 04:20:45;;;;;;;3.55;3.03;;;9.30;99.60;;;;;;2094969;28;20119;-69
2024/03/28 04:21:48;;;;;;;3.85;2.85;;;9.30;99.60;;;;;;2096037;28;20543;-68
2024/03/28 04:22:49;;;;;;;3.22;3.03;;;9.30;99.60;;;;;;2094832;28;20457;-67
2024/03/28 04:23:50;;;;;;;2.92;2.65;;;9.30;99.60;;;;;;2094998;28;20478;-67
2024/03/28 04:24:53;;;;;;;2.85;2.35;;;9.30;99.70;;;;;;2094148;28;20040;-64
2024/03/28 04:25:58;;;;;;;3.58;3.28;;;9.30;99.70;;;;;;2094251;28;20025;-68
2024/03/28 04:26:58;;;;;;;3.10;2.80;;;9.30;99.70;;;;;;2094096;28;20040;-66
2024/03/28 04:27:59;;;;;;;3.22;2.80;;;9.30;99.60;;;;;;2095583;28;20028;-65
2024/03/28 04:29:00;;;;;;;3.50;3.17;;;9.30;99.60;;;;;;2093631;28;20116;-64
2024/03/28 04:30:00;;;;;;;4.30;3.08;;;9.30;99.80;;;;;;2094655;28;20040;-65
2024/03/28 04:31:01;;;;;;;3.33;3.10;;;9.20;99.60;;;;;;2094869;28;20496;-66
2024/03/28 04:32:02;;;;;;;3.90;3.50;;;9.20;99.60;;;;;;2095560;28;20025;-67
2024/03/28 04:33:03;;;;;;;4.03;3.72;;;9.20;99.60;;;;;;2093835;28;20032;-66
2024/03/28 04:34:03;;;;;;;4.43;3.50;;;9.20;99.70;;;;;;2094215;28;21173;-68
2024/03/28 04:35:04;;;;;;;3.90;3.60;;;9.20;99.70;;;;;;2092624;28;20476;-67
2024/03/28 04:36:05;;;;;;;3.33;3.03;;;9.20;99.80;;;;;;2093532;28;20068;-67
2024/03/28 04:37:06;;;;;;;3.85;3.47;;;9.20;99.90;;;;;;2091924;28;20032;-67
2024/03/28 04:38:07;;;;;;;3.80;3.40;;;9.20;99.90;;;;;;2093784;28;20035;-66
2024/03/28 04:39:07;;;;;;;3.08;2.88;;;9.10;99.90;;;;;;2093784;28;20022;-67
2024/03/28 04:40:09;;;;;;;3.55;3.25;;;9.20;99.90;;;;;;2093523;28;20063;-67
2024/03/28 04:41:11;;;;;;;3.65;3.35;;;9.10;99.90;;;;;;2095957;28;20495;-67
2024/03/28 04:42:11;;;;;;;3.78;3.42;;;9.10;99.90;;;;;;2092611;28;20032;-67
2024/03/28 04:43:12;;;;;;;3.85;3.55;;;9.10;99.90;;;;;;2092687;28;20051;-67
2024/03/28 04:44:12;;;;;;;3.85;3.45;;;9.10;99.90;;;;;;2094288;28;20023;-67
2024/03/28 04:45:13;;;;;;;4.10;3.70;;;9.10;99.90;;;;;;2093837;28;20048;-67
2024/03/28 04:46:14;;;;;;;3.63;3.17;;;9.10;99.90;;;;;;2093802;28;20029;-66
2024/03/28 04:47:15;;;;;;;4.00;3.60;;;9.10;99.90;;;;;;2094141;28;20111;-68
2024/03/28 04:48:15;;;;;;;4.20;3.67;;;9.10;99.90;;;;;;2092545;28;20032;-67
2024/03/28 04:49:16;;;;;;;3.35;3.05;;;9.10;99.90;;;;;;2094489;28;20902;-67
2024/03/28 04:50:17;;;;;;;3.90;3.60;;;9.10;99.90;;;;;;2094875;28;20078;-67
2024/03/28 04:51:18;;;;;;;3.63;3.30;;;9.10;99.90;;;;;;2094601;28;20012;-67
2024/03/28 04:52:18;;;;;;;3.60;3.30;;;9.10;99.90;;;;;;2095346;28;20052;-67
2024/03/28 04:53:19;;;;;;;3.72;3.42;;;9.10;99.90;;;;;;2094057;28;20055;-67
2024/03/28 04:54:20;;;;;;;3.80;3.35;;;9.10;99.90;;;;;;2092019;28;20123;-66
2024/03/28 04:55:21;;;;;;;4.47;4.07;;;9.10;99.90;;;;;;2094893;28;20082;-67
2024/03/28 04:56:21;;;;;;;3.83;3.53;;;9.10;99.90;;;;;;2095043;28;20020;-67
2024/03/28 04:57:22;;;;;;;4.07;3.65;;;9.10;99.90;;;;;;2087236;28;20049;-67
2024/03/28 04:58:23;;;;;;;5.03;3.92;;;9.10;99.90;;;;;;2087405;28;20025;-67
2024/03/28 04:59:24;;;;;;;3.80;3.50;;;9.10;99.90;;;;;;2093190;28;20024;-67
2024/03/28 05:00:24;;;;;;;5.45;4.03;;;9.10;99.90;;;;;;2094665;28;20579;-67
2024/03/28 05:01:25;;;;;;;4.28;3.88;;;9.10;99.90;;;;;;2093455;28;20025;-67
2024/03/28 05:02:26;;;;;;;5.00;3.38;;;9.10;99.90;;;;;;2093621;28;20036;-67
2024/03/28 05:03:26;;;;;;;4.07;3.67;;;9.10;99.90;;;;;;2093831;28;20388;-67
2024/03/28 05:04:27;;;;;;;4.30;3.90;;;9.00;99.90;;;;;;2094025;28;20020;-67
2024/03/28 05:05:28;;;;;;;4.95;3.67;;;9.00;99.90;;;;;;2093914;28;20500;-68
2024/03/28 05:06:28;;;;;;;6.32;3.40;;;9.10;99.90;;;;;;2095008;28;20570;-67
2024/03/28 05:07:29;;;;;;;5.03;4.63;;;9.00;99.90;;;;;;2093165;28;20065;-67
2024/03/28 05:08:30;;;;;;;4.88;4.20;;;9.00;99.90;;;;;;2094187;28;20438;-67
2024/03/28 05:09:30;;;;;;;4.20;3.80;;;9.00;99.90;;;;;;2093042;28;20033;-66
2024/03/28 05:10:31;;;;;;;4.20;3.90;;;9.00;99.90;;;;;;2094498;28;20037;-67
2024/03/28 05:11:31;;;;;;;4.35;3.95;;;9.00;99.90;;;;;;2094463;28;20035;-66
2024/03/28 05:12:32;;;;;;;4.55;3.70;;;9.00;99.90;;;;;;2094466;28;20055;-67
2024/03/28 05:13:33;;;;;;;4.70;4.05;;;9.00;99.90;;;;;;2092849;28;20032;-67
2024/03/28 05:14:33;;;;;;;4.00;3.60;;;9.00;99.90;;;;;;2094147;28;20032;-67
2024/03/28 05:15:34;;;;;;;3.92;3.63;;;9.00;99.90;;;;;;2093391;28;20402;-66
2024/03/28 05:16:34;;;;;;;4.57;4.18;;;9.00;99.90;;;;;;2093327;28;20090;-67
2024/03/28 05:17:35;;;;;;;3.75;3.45;;;9.00;99.90;;;;;;2092841;28;20103;-67
2024/03/28 05:18:35;;;;;;;6.05;4.20;;;9.00;99.90;;;;;;2094024;28;20423;-66
2024/03/28 05:19:36;;;;;;;4.30;3.90;;;9.00;99.90;;;;;;2093266;28;20044;-66
2024/03/28 05:20:37;;;;;;;4.43;4.03;;;9.00;99.90;;;;;;2092675;28;20792;-67
2024/03/28 05:21:37;;;;;;;3.97;3.67;;;9.00;99.90;;;;;;2094167;28;20082;-67
2024/03/28 05:22:38;;;;;;;4.50;3.70;;;8.90;99.90;;;;;;2095026;28;20033;-67
2024/03/28 05:23:39;;;;;;;5.32;4.38;;;8.90;99.90;;;;;;2092679;28;20033;-67
2024/03/28 05:24:39;;;;;;;4.18;3.88;;;8.90;99.90;;;;;;2094859;28;20521;-66
2024/03/28 05:25:40;;;;;;;4.00;3.70;;;8.90;99.90;;;;;;2093142;28;20029;-66
2024/03/28 05:26:41;;;;;;;4.43;3.97;;;8.90;99.90;;;;;;2094040;28;20604;-67